Terminal Aerodrome Forecast
Issued by NWS

Home | Current Version | Previous Version | Text Only | Print | Product List | Glossary Off
Versions: 1 2 3 4 5 6 7 8 9 10 11 12 13 14 15 16

493
FTUS43 KICT 111728 AAB
TAFRSL
TAF AMD
KRSL 111728Z 1117/1218 06005KT P6SM SCT012
      TEMPO 1118/1120 BKN008
     FM112000 19006KT P6SM SCT020
     FM120000 24006KT P6SM SCT250
     FM120500 29008KT P6SM SCT150
     FM121100 34011KT P6SM SCT020=

USA.gov is the U.S. government's official web portal to all federal, state and local government web resources and services.